Manuela — 3FBN9 — position and weather

sailwx.info

Track history (hours):
 
Tides and Currents Weather Stations Pressure Air Temp Water Temp Dewpoint Dewpoint Depression Visibility Wind Speed Wind Dir Waves Ship Positions

Manuela

Last reported at 2017-Dec-18 16:30 UTC. Time now 2017-Dec-18 16:44 UTC.
Position N 37°04' E 023°47'.

Length 180 m; draft 6.5 m.

Type: Cargo ship. MMSI: 373573000.

Date/timePositionNaut miles runAvg speedWind from/ knotsBaromVisibWave heightAir tempDewpointWater temp
2017-Dec-18 16:30N 37°04' E 023°47'612.2
2017-Dec-18 16:00N 36°59' E 023°44'2413.0
2017-Dec-18 14:09N 36°38' E 023°29'416 9.8
2017-Dec-16 19:34N 36°17' E 014°52'113.5
2017-Dec-16 19:30N 36°17' E 014°51'713.6
2017-Dec-16 19:00N 36°19' E 014°44'815.5
2017-Dec-16 18:28N 36°22' E 014°34'510.7
2017-Dec-16 18:00N 36°24' E 014°28'713.2
2017-Dec-16 17:30N 36°26' E 014°20'713.3
2017-Dec-16 17:00N 36°28' E 014°13'612.8
2017-Dec-16 16:30N 36°30' E 014°05'1712.5
2017-Dec-16 15:10N 36°36' E 013°45'212.8
2017-Dec-16 15:00N 36°36' E 013°43'712.8
2017-Dec-16 14:30N 36°39' E 013°35'612.8
2017-Dec-16 14:00N 36°41' E 013°28'612.6
2017-Dec-16 13:30N 36°43' E 013°21'612.6
2017-Dec-16 13:00N 36°45' E 013°13'612.8
2017-Dec-16 12:30N 36°47' E 013°06'612.9
2017-Dec-16 12:00N 36°49' E 012°58'612.9
2017-Dec-16 11:30N 36°51' E 012°51'612.9
2017-Dec-16 11:00N 36°54' E 012°43'713.0
2017-Dec-16 10:30N 36°55' E 012°35'713.3
2017-Dec-16 10:00N 36°58' E 012°27'612.9
2017-Dec-16 09:30N 37°00' E 012°20'612.8
2017-Dec-16 09:00N 37°02' E 012°12'612.4
2017-Dec-16 08:30N 37°04' E 012°05'612.6
2017-Dec-16 08:00N 37°06' E 011°58'612.7
2017-Dec-16 07:31N 37°08' E 011°50'612.5
2017-Dec-16 07:01N 37°10' E 011°43'612.6
2017-Dec-16 06:31N 37°12' E 011°35'612.9
2017-Dec-16 06:00N 37°15' E 011°28'713.3
2017-Dec-16 05:31N 37°18' E 011°20'170 6.8
2017-Dec-15 04:25N 36°56' E 007°49'  
Track history (hours):
 
Tides and Currents Weather Stations Pressure Air Temp Water Temp Dewpoint Dewpoint Depression Visibility Wind Speed Wind Dir Waves Ship Positions

Manuela

Last reported at 2017-Dec-18 16:30 UTC. Time now 2017-Dec-18 16:44 UTC.
Position N 37°04' E 023°47'.

Length 180 m; draft 6.5 m.

Type: Cargo ship. MMSI: 373573000.

Date/timePositionNaut miles runAvg speedWind from/ knotsBaromVisibWave heightAir tempDewpointWater temp
2017-Dec-18 16:30N 37°04' E 023°47'612.2
2017-Dec-18 16:00N 36°59' E 023°44'2413.0
2017-Dec-18 14:09N 36°38' E 023°29'416 9.8
2017-Dec-16 19:34N 36°17' E 014°52'113.5
2017-Dec-16 19:30N 36°17' E 014°51'713.6
2017-Dec-16 19:00N 36°19' E 014°44'815.5
2017-Dec-16 18:28N 36°22' E 014°34'510.7
2017-Dec-16 18:00N 36°24' E 014°28'713.2
2017-Dec-16 17:30N 36°26' E 014°20'713.3
2017-Dec-16 17:00N 36°28' E 014°13'612.8
2017-Dec-16 16:30N 36°30' E 014°05'1712.5
2017-Dec-16 15:10N 36°36' E 013°45'212.8
2017-Dec-16 15:00N 36°36' E 013°43'712.8
2017-Dec-16 14:30N 36°39' E 013°35'612.8
2017-Dec-16 14:00N 36°41' E 013°28'612.6
2017-Dec-16 13:30N 36°43' E 013°21'612.6
2017-Dec-16 13:00N 36°45' E 013°13'612.8
2017-Dec-16 12:30N 36°47' E 013°06'612.9
2017-Dec-16 12:00N 36°49' E 012°58'612.9
2017-Dec-16 11:30N 36°51' E 012°51'612.9
2017-Dec-16 11:00N 36°54' E 012°43'713.0
2017-Dec-16 10:30N 36°55' E 012°35'713.3
2017-Dec-16 10:00N 36°58' E 012°27'612.9
2017-Dec-16 09:30N 37°00' E 012°20'612.8
2017-Dec-16 09:00N 37°02' E 012°12'612.4
2017-Dec-16 08:30N 37°04' E 012°05'612.6
2017-Dec-16 08:00N 37°06' E 011°58'612.7
2017-Dec-16 07:31N 37°08' E 011°50'612.5
2017-Dec-16 07:01N 37°10' E 011°43'612.6
2017-Dec-16 06:31N 37°12' E 011°35'612.9
2017-Dec-16 06:00N 37°15' E 011°28'713.3
2017-Dec-16 05:31N 37°18' E 011°20'170 6.8
2017-Dec-15 04:25N 36°56' E 007°49'  

Dump ship's entire track history